createdAt,value
2022-09-14T00:02:13.724Z,79.35
2022-09-14T00:04:59.848Z,79.51
2022-09-14T00:07:45.088Z,79.39
2022-09-14T00:10:30.980Z,79.21
2022-09-14T00:13:16.238Z,79.19
2022-09-14T00:16:07.012Z,79.12
2022-09-14T00:18:54.218Z,79.02
2022-09-14T00:21:40.105Z,79.04
2022-09-14T00:24:28.296Z,79.25
2022-09-14T00:27:13.975Z,79.06
2022-09-14T00:29:59.325Z,78.99
2022-09-14T00:32:44.938Z,79.01
2022-09-14T00:35:30.309Z,78.66
2022-09-14T00:38:15.728Z,78.75
2022-09-14T00:41:02.227Z,78.52
2022-09-14T00:44:13.821Z,78.57
2022-09-14T00:47:02.658Z,78.24
2022-09-14T00:49:48.383Z,78.26
2022-09-14T00:52:37.473Z,78.48
2022-09-14T00:55:24.075Z,78.30
2022-09-14T00:58:09.557Z,78.48
2022-09-14T01:00:55.064Z,78.26
2022-09-14T01:03:40.681Z,77.45
2022-09-14T01:06:36.051Z,77.67
2022-09-14T01:09:46.569Z,77.36
2022-09-14T01:12:50.982Z,77.42
2022-09-14T01:15:48.707Z,76.66
2022-09-14T01:18:43.193Z,76.33
2022-09-14T01:21:38.333Z,76.74
2022-09-14T01:24:43.245Z,76.07
2022-09-14T01:27:41.866Z,75.99
2022-09-14T01:30:31.947Z,76.15
2022-09-14T01:33:57.329Z,76.31
2022-09-14T01:36:51.731Z,76.13
2022-09-14T01:39:38.002Z,76.08
2022-09-14T01:42:26.652Z,75.81
2022-09-14T01:45:21.244Z,75.48
2022-09-14T01:48:08.883Z,75.87
2022-09-14T01:50:58.532Z,75.74
2022-09-14T01:53:49.526Z,75.61
2022-09-14T01:56:41.516Z,75.63
2022-09-14T01:59:31.712Z,75.54
2022-09-14T02:02:23.960Z,75.14
2022-09-14T02:05:12.481Z,75.13
2022-09-14T02:07:58.449Z,74.79
2022-09-14T02:10:44.197Z,74.72
2022-09-14T02:13:29.883Z,74.68
2022-09-14T02:16:15.650Z,74.82
2022-09-14T02:19:01.744Z,74.93
2022-09-14T02:21:47.338Z,74.63
2022-09-14T02:24:33.102Z,74.88
2022-09-14T02:27:18.557Z,75.13
2022-09-14T02:30:04.773Z,75.00
2022-09-14T02:32:59.189Z,75.49
2022-09-14T02:35:53.942Z,75.05
2022-09-14T02:39:17.635Z,75.35
2022-09-14T02:42:09.894Z,75.48
2022-09-14T02:45:07.722Z,75.69
2022-09-14T02:48:31.863Z,75.61
2022-09-14T02:51:32.725Z,75.60
2022-09-14T02:54:45.234Z,75.97
2022-09-14T02:57:30.674Z,76.39
2022-09-14T03:00:16.082Z,76.85
2022-09-14T03:03:01.367Z,77.37
2022-09-14T03:05:47.613Z,77.13
2022-09-14T03:08:34.066Z,76.16
2022-09-14T03:11:19.979Z,76.47
2022-09-14T03:14:05.894Z,76.75
2022-09-14T03:16:51.199Z,77.11
2022-09-14T03:19:36.584Z,77.17
2022-09-14T03:22:21.940Z,77.45
2022-09-14T03:25:07.660Z,77.45
2022-09-14T03:27:57.183Z,77.80
2022-09-14T03:30:42.529Z,77.74
2022-09-14T03:33:28.082Z,78.42
2022-09-14T03:36:16.889Z,78.31
2022-09-14T03:39:02.503Z,78.50
2022-09-14T03:41:47.856Z,77.98
2022-09-14T03:44:33.241Z,77.98
2022-09-14T03:47:18.657Z,78.09
2022-09-14T03:50:04.359Z,78.17
2022-09-14T03:52:49.652Z,78.28
2022-09-14T03:55:35.009Z,78.29
2022-09-14T03:58:20.688Z,78.32
2022-09-14T04:01:07.801Z,78.38
2022-09-14T04:03:53.267Z,78.47
2022-09-14T04:06:38.743Z,78.33
2022-09-14T04:09:23.999Z,78.32
2022-09-14T04:12:09.710Z,78.32
2022-09-14T04:14:55.301Z,78.14
2022-09-14T04:17:40.905Z,78.21
2022-09-14T04:20:26.327Z,77.95
2022-09-14T04:23:12.297Z,78.11
2022-09-14T04:25:57.718Z,78.19
2022-09-14T04:28:43.661Z,77.91
2022-09-14T04:31:29.754Z,78.19
2022-09-14T04:34:15.338Z,78.02
2022-09-14T04:37:00.613Z,78.06
2022-09-14T04:39:46.649Z,77.78
2022-09-14T04:42:31.978Z,77.65
2022-09-14T04:45:17.275Z,77.66
2022-09-14T04:48:03.103Z,77.29
2022-09-14T04:50:48.540Z,77.11
2022-09-14T04:53:35.348Z,77.25
2022-09-14T04:56:22.654Z,77.40
2022-09-14T04:59:08.504Z,76.96
2022-09-14T05:01:54.251Z,76.95
2022-09-14T05:04:40.444Z,77.11
2022-09-14T05:07:25.985Z,77.08
2022-09-14T05:10:11.573Z,77.22
2022-09-14T05:12:56.802Z,76.89
2022-09-14T05:15:42.637Z,76.13
2022-09-14T05:18:28.112Z,76.10
2022-09-14T05:21:17.469Z,76.12
2022-09-14T05:24:21.565Z,76.25
2022-09-14T05:27:07.185Z,75.88
2022-09-14T05:29:53.361Z,75.74
2022-09-14T05:32:39.139Z,75.54
2022-09-14T05:35:24.569Z,75.30
2022-09-14T05:38:09.959Z,74.49
2022-09-14T05:40:55.564Z,74.29
2022-09-14T05:43:41.688Z,74.36
2022-09-14T05:46:27.345Z,73.92
2022-09-14T05:49:12.596Z,74.07
2022-09-14T05:51:57.933Z,74.10
2022-09-14T05:54:43.259Z,73.83
2022-09-14T05:57:28.583Z,73.72
2022-09-14T06:00:15.047Z,73.37
2022-09-14T06:03:01.124Z,73.60
2022-09-14T06:05:46.581Z,73.35
2022-09-14T06:08:32.852Z,73.51
2022-09-14T06:11:22.590Z,73.57
2022-09-14T06:14:08.461Z,73.79
2022-09-14T06:16:53.984Z,73.65
2022-09-14T06:19:39.384Z,73.24
2022-09-14T06:22:24.679Z,72.68
2022-09-14T06:25:11.513Z,72.91
2022-09-14T06:27:57.171Z,72.19
2022-09-14T06:30:44.270Z,72.43
2022-09-14T06:33:31.393Z,71.06
2022-09-14T06:36:19.746Z,70.76
2022-09-14T06:39:05.241Z,70.43
2022-09-14T06:41:53.946Z,70.11
2022-09-14T06:44:40.172Z,70.17
2022-09-14T06:47:25.529Z,69.19
2022-09-14T06:50:10.831Z,69.70
2022-09-14T06:52:56.135Z,69.29
2022-09-14T06:55:41.582Z,69.32
2022-09-14T06:58:27.114Z,68.58
2022-09-14T07:01:15.078Z,68.50
2022-09-14T07:04:01.583Z,69.55
2022-09-14T07:06:49.699Z,69.30
2022-09-14T07:09:36.637Z,69.43
2022-09-14T07:12:22.241Z,69.31
2022-09-14T07:15:08.443Z,69.53
2022-09-14T07:17:54.050Z,69.95
2022-09-14T07:20:39.598Z,68.97
2022-09-14T07:23:24.787Z,68.99
2022-09-14T07:26:19.091Z,68.39
2022-09-14T07:29:06.930Z,68.90
2022-09-14T07:31:54.074Z,69.01
2022-09-14T07:34:39.642Z,68.18
2022-09-14T07:37:25.351Z,67.74
2022-09-14T07:40:11.214Z,66.99
2022-09-14T07:42:57.707Z,65.52
2022-09-14T07:45:43.158Z,66.30
2022-09-14T07:48:28.484Z,66.30
2022-09-14T07:51:14.460Z,66.31
2022-09-14T07:54:01.753Z,65.43
2022-09-14T07:56:47.438Z,64.74
2022-09-14T07:59:37.346Z,63.40
2022-09-14T08:02:24.121Z,63.77
2022-09-14T08:05:10.174Z,63.23
2022-09-14T08:07:56.974Z,63.95
2022-09-14T08:10:42.343Z,64.15
2022-09-14T08:13:27.772Z,64.99
2022-09-14T08:16:13.989Z,63.74
2022-09-14T08:19:01.536Z,64.26
2022-09-14T08:21:47.952Z,63.63
2022-09-14T08:24:33.558Z,63.24
2022-09-14T08:27:18.930Z,64.40
2022-09-14T08:30:05.308Z,64.43
2022-09-14T08:32:50.711Z,63.46
2022-09-14T08:35:57.549Z,62.94
2022-09-14T08:38:43.423Z,62.96
2022-09-14T08:41:37.796Z,63.56
2022-09-14T08:44:31.426Z,63.51
2022-09-14T08:47:28.903Z,63.33
2022-09-14T08:50:18.337Z,63.73
2022-09-14T08:53:05.713Z,63.90
2022-09-14T08:56:00.624Z,62.80
2022-09-14T08:58:51.928Z,63.35
2022-09-14T09:01:37.280Z,62.75
2022-09-14T09:04:28.788Z,62.24
2022-09-14T09:07:32.699Z,62.95
2022-09-14T09:10:19.039Z,63.75
2022-09-14T09:13:06.893Z,63.04
2022-09-14T09:15:55.116Z,63.54
2022-09-14T09:19:13.919Z,63.64
2022-09-14T09:22:03.288Z,62.02
2022-09-14T09:24:52.646Z,61.47
2022-09-14T09:27:37.633Z,62.58
2022-09-14T09:30:29.606Z,61.38
2022-09-14T09:33:23.256Z,61.85
2022-09-14T09:36:24.783Z,61.78
2022-09-14T09:39:10.385Z,59.87
2022-09-14T09:42:06.665Z,59.26
2022-09-14T09:45:01.313Z,60.51
2022-09-14T09:47:48.704Z,61.57
2022-09-14T09:50:34.116Z,61.28
2022-09-14T09:53:22.914Z,60.69
2022-09-14T09:56:16.562Z,60.35
2022-09-14T09:59:02.967Z,61.43
2022-09-14T10:01:48.891Z,61.04
2022-09-14T10:04:35.226Z,58.92
2022-09-14T10:07:22.474Z,59.81
2022-09-14T10:10:14.380Z,58.53
2022-09-14T10:13:00.168Z,57.04
2022-09-14T10:15:47.037Z,55.53
2022-09-14T10:18:32.988Z,56.22
2022-09-14T10:21:23.507Z,56.13
2022-09-14T10:24:15.070Z,55.58
2022-09-14T10:27:00.561Z,55.93
2022-09-14T10:29:49.655Z,56.54
2022-09-14T10:32:35.908Z,56.71
2022-09-14T10:35:28.286Z,57.85
2022-09-14T10:38:39.072Z,57.70
2022-09-14T10:41:45.513Z,58.08
2022-09-14T10:44:57.789Z,58.43
2022-09-14T10:48:14.891Z,59.54
2022-09-14T10:51:31.567Z,59.69
2022-09-14T10:54:31.047Z,60.75
2022-09-14T10:57:34.789Z,60.82
2022-09-14T11:00:21.141Z,60.41
2022-09-14T11:03:25.571Z,61.36
2022-09-14T11:06:29.325Z,61.24
2022-09-14T11:09:47.047Z,61.89
2022-09-14T11:12:41.911Z,62.14
2022-09-14T11:16:06.046Z,61.90
2022-09-14T11:18:51.578Z,62.05
2022-09-14T11:21:46.278Z,62.56
2022-09-14T11:24:56.358Z,62.28
2022-09-14T11:27:52.464Z,62.43
2022-09-14T11:31:04.833Z,62.15
2022-09-14T11:34:04.336Z,62.65
2022-09-14T11:36:59.302Z,62.01
2022-09-14T11:43:27.255Z,60.28
2022-09-14T11:46:25.040Z,60.21
2022-09-14T11:49:29.065Z,61.41
2022-09-14T11:52:23.635Z,60.42
2022-09-14T11:55:15.340Z,61.14
2022-09-14T11:58:05.466Z,60.47
2022-09-14T12:01:05.012Z,60.37
2022-09-14T12:03:53.352Z,61.24
2022-09-14T12:06:38.895Z,61.22
2022-09-14T12:09:25.146Z,59.68
2022-09-14T12:12:31.672Z,60.74
2022-09-14T12:15:34.400Z,58.88
2022-09-14T12:18:23.293Z,58.41
2022-09-14T12:21:27.383Z,58.39
2022-09-14T12:24:16.123Z,59.03
2022-09-14T12:27:15.411Z,56.53
2022-09-14T12:30:00.889Z,56.53
2022-09-14T12:32:46.401Z,57.16
2022-09-14T12:35:38.028Z,56.29
2022-09-14T12:38:29.701Z,57.48
2022-09-14T12:41:15.188Z,57.04
2022-09-14T12:44:00.553Z,56.90
2022-09-14T12:46:46.126Z,57.97
2022-09-14T12:49:36.152Z,58.52
2022-09-14T12:52:57.486Z,58.17
2022-09-14T12:55:56.979Z,58.66
2022-09-14T12:59:06.203Z,58.44
2022-09-14T13:02:23.512Z,58.99
2022-09-14T13:05:16.192Z,58.85
2022-09-14T13:08:10.251Z,59.34
2022-09-14T13:11:00.523Z,59.61
2022-09-14T13:13:51.379Z,58.80
2022-09-14T13:16:44.014Z,59.26
2022-09-14T13:19:32.919Z,58.96
2022-09-14T13:22:25.144Z,59.20
2022-09-14T13:25:32.492Z,59.15
2022-09-14T13:28:20.971Z,60.33
2022-09-14T13:31:14.179Z,59.61
2022-09-14T13:34:03.215Z,59.94
2022-09-14T13:36:49.677Z,60.57
2022-09-14T13:39:42.147Z,60.06
2022-09-14T13:42:27.747Z,59.62
2022-09-14T13:45:14.471Z,59.72
2022-09-14T13:48:00.882Z,59.95
2022-09-14T13:50:51.157Z,60.11
2022-09-14T13:53:42.863Z,60.10
2022-09-14T13:56:31.410Z,59.50
2022-09-14T13:59:21.458Z,59.95
2022-09-14T14:02:13.366Z,59.77
2022-09-14T14:04:58.773Z,59.28
2022-09-14T14:07:46.019Z,58.40
2022-09-14T14:10:40.470Z,57.63
2022-09-14T14:13:28.719Z,57.73
2022-09-14T14:16:18.180Z,58.10
2022-09-14T14:19:04.347Z,57.70
2022-09-14T14:21:50.561Z,58.03
2022-09-14T14:24:45.194Z,58.13
2022-09-14T14:27:44.838Z,58.27
2022-09-14T14:30:31.941Z,58.87
2022-09-14T14:33:19.396Z,58.61
2022-09-14T14:36:09.784Z,58.90
2022-09-14T14:38:56.547Z,58.36
2022-09-14T14:41:42.806Z,59.00
2022-09-14T14:44:29.125Z,58.66
2022-09-14T14:47:16.248Z,59.17
2022-09-14T14:50:03.962Z,59.13
2022-09-14T14:52:51.531Z,59.31
2022-09-14T14:55:37.666Z,58.99
2022-09-14T14:58:24.458Z,58.94
2022-09-14T15:01:09.791Z,58.73
2022-09-14T15:03:55.465Z,59.55
2022-09-14T15:06:41.071Z,59.11
2022-09-14T15:09:28.362Z,59.43
2022-09-14T15:12:14.109Z,58.75
2022-09-14T15:14:59.813Z,58.84
2022-09-14T15:17:47.441Z,58.85
2022-09-14T15:20:33.196Z,59.22
2022-09-14T15:23:19.073Z,59.42
2022-09-14T15:26:04.808Z,59.48
2022-09-14T15:28:51.711Z,60.05
2022-09-14T15:31:37.301Z,60.27
2022-09-14T15:34:23.552Z,60.49
2022-09-14T15:37:09.490Z,60.57
2022-09-14T15:39:55.736Z,60.57
2022-09-14T15:42:41.601Z,60.26
2022-09-14T15:45:27.805Z,60.57
2022-09-14T15:48:15.834Z,60.60
2022-09-14T15:51:10.006Z,60.49
2022-09-14T15:53:56.055Z,60.43
2022-09-14T15:56:42.163Z,60.69
2022-09-14T15:59:28.676Z,60.58
2022-09-14T16:02:15.039Z,61.20
2022-09-14T16:05:00.938Z,61.52
2022-09-14T16:07:46.466Z,61.53
2022-09-14T16:10:32.295Z,61.88
2022-09-14T16:13:17.713Z,62.42
2022-09-14T16:16:16.029Z,62.44
2022-09-14T16:19:14.050Z,62.47
2022-09-14T16:22:01.066Z,62.82
2022-09-14T16:24:47.416Z,62.80
2022-09-14T16:27:32.964Z,63.08
2022-09-14T16:30:19.075Z,63.42
2022-09-14T16:33:04.670Z,63.88
2022-09-14T16:35:51.066Z,64.41
2022-09-14T16:38:37.640Z,64.55
2022-09-14T16:41:24.034Z,64.76
2022-09-14T16:44:19.599Z,65.02
2022-09-14T16:47:05.291Z,65.47
2022-09-14T16:49:51.682Z,65.63
2022-09-14T16:52:37.305Z,65.95
2022-09-14T16:55:22.920Z,66.14
2022-09-14T16:58:08.387Z,66.39
2022-09-14T17:00:54.503Z,66.68
2022-09-14T17:03:40.871Z,67.35
2022-09-14T17:06:30.574Z,68.13
2022-09-14T17:09:30.028Z,68.65
2022-09-14T17:12:17.066Z,69.15
2022-09-14T17:15:02.537Z,69.73
2022-09-14T17:17:50.934Z,70.41
2022-09-14T17:20:38.214Z,70.09
2022-09-14T17:23:24.350Z,70.70
2022-09-14T17:26:11.535Z,70.95
2022-09-14T17:28:58.923Z,71.22
2022-09-14T17:31:46.053Z,70.91
2022-09-14T17:34:32.543Z,71.27
2022-09-14T17:37:18.824Z,71.20
2022-09-14T17:40:08.498Z,71.95
2022-09-14T17:42:54.439Z,72.14
2022-09-14T17:45:41.085Z,71.85
2022-09-14T17:48:31.643Z,72.51
2022-09-14T17:51:20.818Z,72.88
2022-09-14T17:54:06.815Z,72.92
2022-09-14T17:56:52.679Z,73.21
2022-09-14T17:59:38.724Z,73.43
2022-09-14T18:02:24.962Z,73.29
2022-09-14T18:05:11.016Z,73.70
2022-09-14T18:07:57.129Z,74.05
2022-09-14T18:10:44.036Z,74.14
2022-09-14T18:13:29.508Z,74.22
2022-09-14T18:16:16.790Z,74.84
2022-09-14T18:19:03.220Z,74.67
2022-09-14T18:21:52.426Z,74.67
2022-09-14T18:24:38.701Z,75.15
2022-09-14T18:27:25.115Z,75.73
2022-09-14T18:30:15.005Z,75.56
2022-09-14T18:33:06.872Z,75.47
2022-09-14T18:35:53.904Z,75.98
2022-09-14T18:38:39.877Z,76.27
2022-09-14T18:41:35.781Z,76.13
2022-09-14T18:44:22.439Z,75.81
2022-09-14T18:47:15.743Z,76.08
2022-09-14T18:50:07.168Z,75.96
2022-09-14T18:52:53.788Z,76.23
2022-09-14T18:55:39.927Z,76.69
2022-09-14T18:58:25.977Z,76.91
2022-09-14T19:01:13.079Z,77.10
2022-09-14T19:03:59.323Z,77.31
2022-09-14T19:06:45.153Z,77.32
2022-09-14T19:09:31.262Z,77.50
2022-09-14T19:12:17.801Z,77.58
2022-09-14T19:15:04.613Z,77.45
2022-09-14T19:17:50.968Z,77.48
2022-09-14T19:21:04.914Z,77.86
2022-09-14T19:23:46.998Z,77.98
2022-09-14T19:26:44.603Z,78.00
2022-09-14T19:29:32.926Z,78.47
2022-09-14T19:32:19.491Z,78.50
2022-09-14T19:35:06.180Z,78.66
2022-09-14T19:37:53.232Z,79.05
2022-09-14T19:40:39.329Z,79.03
2022-09-14T19:43:26.042Z,79.17
2022-09-14T19:46:14.449Z,79.48
2022-09-14T19:49:00.214Z,79.59
2022-09-14T19:51:47.143Z,79.81
2022-09-14T19:54:33.250Z,79.63
2022-09-14T19:57:19.715Z,80.03
2022-09-14T20:00:09.519Z,80.14
2022-09-14T20:02:54.942Z,80.49
2022-09-14T20:05:40.321Z,80.25
2022-09-14T20:08:25.826Z,80.61
2022-09-14T20:11:17.652Z,80.97
2022-09-14T20:14:07.797Z,80.92
2022-09-14T20:16:56.842Z,81.08
2022-09-14T20:19:42.585Z,81.30
2022-09-14T20:22:28.330Z,81.77
2022-09-14T20:25:13.827Z,81.76
2022-09-14T20:27:59.159Z,81.66
2022-09-14T20:30:44.642Z,81.53
2022-09-14T20:33:30.655Z,81.93
2022-09-14T20:36:18.974Z,81.97
2022-09-14T20:39:05.218Z,82.30
2022-09-14T20:41:52.818Z,82.64
2022-09-14T20:44:38.290Z,82.93
2022-09-14T20:47:24.775Z,82.54
2022-09-14T20:50:12.750Z,82.72
2022-09-14T20:52:58.278Z,82.41
2022-09-14T20:55:43.993Z,82.87
2022-09-14T20:58:29.846Z,82.55
2022-09-14T21:01:18.398Z,82.93
2022-09-14T21:04:07.242Z,82.88
2022-09-14T21:06:55.279Z,83.00
2022-09-14T21:09:40.822Z,82.83
2022-09-14T21:12:27.970Z,82.73
2022-09-14T21:15:13.535Z,82.67
2022-09-14T21:17:59.010Z,82.82
2022-09-14T21:20:44.723Z,82.94
2022-09-14T21:23:30.273Z,82.81
2022-09-14T21:26:16.497Z,82.96
2022-09-14T21:29:06.326Z,82.91
2022-09-14T21:31:53.186Z,83.23
2022-09-14T21:34:38.813Z,83.28
2022-09-14T21:37:26.592Z,83.71
2022-09-14T21:40:13.617Z,83.67
2022-09-14T21:42:58.919Z,84.09
2022-09-14T21:45:45.325Z,84.10
2022-09-14T21:48:31.224Z,84.17
2022-09-14T21:51:24.437Z,84.23
2022-09-14T21:54:12.024Z,84.19
2022-09-14T21:56:57.774Z,84.43
2022-09-14T21:59:43.433Z,84.32
2022-09-14T22:02:28.734Z,84.58
2022-09-14T22:05:14.777Z,85.03
2022-09-14T22:08:00.993Z,84.56
2022-09-14T22:10:46.856Z,84.68
2022-09-14T22:13:33.278Z,84.84
2022-09-14T22:16:19.005Z,84.87
2022-09-14T22:19:08.845Z,85.20
2022-09-14T22:21:54.625Z,84.94
2022-09-14T22:24:42.069Z,84.97
2022-09-14T22:27:27.943Z,84.86
2022-09-14T22:30:14.127Z,85.20
2022-09-14T22:32:59.761Z,85.40
2022-09-14T22:35:53.374Z,85.31
2022-09-14T22:38:41.120Z,85.41
2022-09-14T22:41:27.731Z,85.53
2022-09-14T22:44:13.774Z,85.88
2022-09-14T22:46:59.504Z,85.99
2022-09-14T22:49:45.599Z,85.62
2022-09-14T22:52:31.241Z,85.53
2022-09-14T22:55:16.885Z,85.33
2022-09-14T22:58:02.662Z,85.73
2022-09-14T23:00:48.672Z,85.53
2022-09-14T23:03:34.738Z,85.59
2022-09-14T23:06:20.200Z,85.60
2022-09-14T23:09:08.802Z,85.65
2022-09-14T23:11:54.630Z,85.48
2022-09-14T23:14:40.079Z,85.52
2022-09-14T23:17:25.912Z,85.54
2022-09-14T23:20:12.324Z,85.75
2022-09-14T23:22:58.219Z,85.61
2022-09-14T23:25:44.032Z,85.36
2022-09-14T23:28:30.412Z,85.26
2022-09-14T23:31:15.997Z,85.21
2022-09-14T23:34:04.239Z,85.75
2022-09-14T23:36:50.042Z,85.01
2022-09-14T23:39:35.833Z,85.36
2022-09-14T23:42:21.351Z,85.03
2022-09-14T23:45:07.508Z,85.36
2022-09-14T23:47:52.928Z,85.26
2022-09-14T23:50:38.737Z,85.11
2022-09-14T23:53:24.366Z,84.99
2022-09-14T23:56:10.890Z,84.89
2022-09-14T23:58:56.735Z,84.99
